createdAt,value
2019-03-22T00:00:28.527Z,48.73
2019-03-22T00:02:56.692Z,50.75
2019-03-22T00:05:24.835Z,51.27
2019-03-22T00:07:52.963Z,48.98
2019-03-22T00:10:21.100Z,53.20
2019-03-22T00:12:49.768Z,48.45
2019-03-22T00:15:17.914Z,53.07
2019-03-22T00:17:46.044Z,50.37
2019-03-22T00:20:14.238Z,51.03
2019-03-22T00:22:42.357Z,51.00
2019-03-22T00:25:16.544Z,50.08
2019-03-22T00:27:44.667Z,51.17
2019-03-22T00:30:13.003Z,53.57
2019-03-22T00:32:41.123Z,50.63
2019-03-22T00:35:09.518Z,51.33
2019-03-22T00:37:37.710Z,50.67
2019-03-22T00:40:05.996Z,51.70
2019-03-22T00:42:34.167Z,52.23
2019-03-22T00:45:02.309Z,51.43
2019-03-22T00:47:30.450Z,53.20
2019-03-22T00:49:58.578Z,52.80
2019-03-22T00:52:27.572Z,53.00
2019-03-22T00:54:55.750Z,52.23
2019-03-22T00:57:28.350Z,54.57
2019-03-22T00:59:53.803Z,53.57
2019-03-22T01:02:21.954Z,53.90
2019-03-22T01:04:50.081Z,53.98
2019-03-22T01:07:18.272Z,53.20
2019-03-22T01:09:47.133Z,52.45
2019-03-22T01:12:15.258Z,50.00
2019-03-22T01:14:43.385Z,50.10
2019-03-22T01:17:11.582Z,50.53
2019-03-22T01:19:39.745Z,49.83
2019-03-22T01:22:07.877Z,52.03
2019-03-22T01:24:36.063Z,53.83
2019-03-22T01:27:04.251Z,52.17
2019-03-22T01:29:32.384Z,53.30
2019-03-22T01:32:00.599Z,48.97
2019-03-22T01:34:28.718Z,51.18
2019-03-22T01:36:56.867Z,50.05
2019-03-22T01:39:25.372Z,51.07
2019-03-22T01:41:53.497Z,48.27
2019-03-22T01:44:21.622Z,49.53
2019-03-22T01:46:49.810Z,47.40
2019-03-22T01:49:18.664Z,51.30
2019-03-22T01:51:46.807Z,50.37
2019-03-22T01:54:14.921Z,51.37
2019-03-22T01:56:43.026Z,52.80
2019-03-22T01:59:11.159Z,48.63
2019-03-22T02:01:39.400Z,50.20
2019-03-22T02:04:07.525Z,50.17
2019-03-22T02:06:36.186Z,48.13
2019-03-22T02:09:05.963Z,47.27
2019-03-22T02:11:34.558Z,49.33
2019-03-22T02:14:02.690Z,49.77
2019-03-22T02:16:30.863Z,47.97
2019-03-22T02:18:58.984Z,48.43
2019-03-22T02:21:27.178Z,47.50
2019-03-22T02:23:55.391Z,48.63
2019-03-22T02:26:23.543Z,46.47
2019-03-22T02:28:52.405Z,46.17
2019-03-22T02:31:20.543Z,45.93
2019-03-22T02:33:48.684Z,47.33
2019-03-22T02:36:16.805Z,47.07
2019-03-22T02:38:44.933Z,43.10
2019-03-22T02:41:13.130Z,47.27
2019-03-22T02:43:41.352Z,44.87
2019-03-22T02:46:09.491Z,47.27
2019-03-22T02:48:56.980Z,43.93
2019-03-22T02:51:25.168Z,45.58
2019-03-22T02:53:59.281Z,45.10
2019-03-22T02:56:27.404Z,44.73
2019-03-22T02:58:59.072Z,44.70
2019-03-22T03:01:25.390Z,42.03
2019-03-22T03:03:53.601Z,45.93
2019-03-22T03:06:21.822Z,47.20
2019-03-22T03:08:49.953Z,45.67
2019-03-22T03:11:18.188Z,46.43
2019-03-22T03:13:46.326Z,45.23
2019-03-22T03:16:14.486Z,43.67
2019-03-22T03:18:42.695Z,45.80
2019-03-22T03:21:10.861Z,44.63
2019-03-22T03:23:39.008Z,45.50
2019-03-22T03:26:07.145Z,47.47
2019-03-22T03:28:37.228Z,48.17
2019-03-22T03:31:05.212Z,46.60
2019-03-22T03:33:33.368Z,45.40
2019-03-22T03:36:01.600Z,45.90
2019-03-22T03:38:29.721Z,43.60
2019-03-22T03:40:58.623Z,45.43
2019-03-22T03:43:26.810Z,47.00
2019-03-22T03:45:55.025Z,47.47
2019-03-22T03:48:23.175Z,45.90
2019-03-22T03:50:51.294Z,47.33
2019-03-22T03:53:19.445Z,48.07
2019-03-22T03:55:47.562Z,50.30
2019-03-22T03:58:16.130Z,45.63
2019-03-22T04:00:44.315Z,47.00
2019-03-22T04:03:13.245Z,50.17
2019-03-22T04:05:41.457Z,47.77
2019-03-22T04:08:09.609Z,45.93
2019-03-22T04:10:37.748Z,49.30
2019-03-22T04:13:05.927Z,49.97
2019-03-22T04:15:34.135Z,47.50
2019-03-22T04:18:02.330Z,51.80
2019-03-22T04:20:30.457Z,48.33
2019-03-22T04:22:58.586Z,46.07
2019-03-22T04:25:26.713Z,46.90
2019-03-22T04:27:54.853Z,48.63
2019-03-22T04:30:23.013Z,45.90
2019-03-22T04:32:51.125Z,46.23
2019-03-22T04:35:19.284Z,47.53
2019-03-22T04:37:47.463Z,45.57
2019-03-22T04:40:28.299Z,47.70
2019-03-22T04:42:56.615Z,48.40
2019-03-22T04:45:25.842Z,46.83
2019-03-22T04:47:58.822Z,46.23
2019-03-22T04:50:27.888Z,47.93
2019-03-22T04:52:56.811Z,44.30
2019-03-22T04:55:25.107Z,46.33
2019-03-22T04:57:53.531Z,47.70
2019-03-22T05:00:22.099Z,48.00
2019-03-22T05:02:50.331Z,47.57
2019-03-22T05:05:19.111Z,43.83
2019-03-22T05:07:47.633Z,48.67
2019-03-22T05:10:16.533Z,43.43
2019-03-22T05:12:45.950Z,44.57
2019-03-22T05:15:15.660Z,43.38
2019-03-22T05:17:44.352Z,45.03
2019-03-22T05:20:12.472Z,43.00
2019-03-22T05:22:41.063Z,44.33
2019-03-22T05:25:10.159Z,44.50
2019-03-22T05:27:39.399Z,44.88
2019-03-22T05:32:42.511Z,45.98
2019-03-22T05:35:10.662Z,42.93
2019-03-22T05:37:38.931Z,41.63
2019-03-22T05:40:07.167Z,42.07
2019-03-22T05:42:35.282Z,45.07
2019-03-22T05:45:04.074Z,44.63
2019-03-22T05:47:32.214Z,42.37
2019-03-22T05:50:19.687Z,45.55
2019-03-22T05:52:47.815Z,41.77
2019-03-22T05:55:18.863Z,41.23
2019-03-22T05:58:05.552Z,43.33
2019-03-22T06:00:33.751Z,46.57
2019-03-22T06:03:01.939Z,44.33
2019-03-22T06:05:30.085Z,44.10
2019-03-22T06:07:58.267Z,44.00
2019-03-22T06:10:26.423Z,42.88
2019-03-22T06:12:54.543Z,39.57
2019-03-22T06:15:22.718Z,39.90
2019-03-22T06:17:51.826Z,38.87
2019-03-22T06:20:20.337Z,42.10
2019-03-22T06:22:48.468Z,39.53
2019-03-22T06:25:16.623Z,40.43
2019-03-22T06:27:44.766Z,39.58
2019-03-22T06:30:12.956Z,41.53
2019-03-22T06:32:41.073Z,40.60
2019-03-22T06:35:09.366Z,39.57
2019-03-22T06:37:37.537Z,40.48
2019-03-22T06:40:05.946Z,39.27
2019-03-22T06:42:34.054Z,41.47
2019-03-22T06:45:02.215Z,41.80
2019-03-22T06:47:30.405Z,39.48
2019-03-22T06:49:58.526Z,44.50
2019-03-22T06:52:26.727Z,42.17
2019-03-22T06:54:54.882Z,41.67
2019-03-22T06:57:23.062Z,42.13
2019-03-22T06:59:51.212Z,41.77
2019-03-22T07:02:19.369Z,43.03
2019-03-22T07:04:47.558Z,42.23
2019-03-22T07:07:15.673Z,43.93
2019-03-22T07:09:43.959Z,42.17
2019-03-22T07:12:12.248Z,41.20
2019-03-22T07:14:40.629Z,42.17
2019-03-22T07:17:08.756Z,46.17
2019-03-22T07:19:36.925Z,42.63
2019-03-22T07:22:05.159Z,42.00
2019-03-22T07:24:33.313Z,40.03
2019-03-22T07:27:01.423Z,40.50
2019-03-22T07:29:29.553Z,42.43
2019-03-22T07:31:57.789Z,40.73
2019-03-22T07:34:25.975Z,38.07
2019-03-22T07:36:54.120Z,39.50
2019-03-22T07:39:22.277Z,40.03
2019-03-22T07:41:50.421Z,39.37
2019-03-22T07:44:18.540Z,37.63
2019-03-22T07:46:46.662Z,37.50
2019-03-22T07:49:14.790Z,36.57
2019-03-22T07:51:42.934Z,34.88
2019-03-22T07:54:11.135Z,33.60
2019-03-22T07:56:39.334Z,29.60
2019-03-22T07:59:09.755Z,28.37
2019-03-22T08:01:37.959Z,26.55
2019-03-22T08:04:06.090Z,26.50
2019-03-22T08:06:34.286Z,27.87
2019-03-22T08:09:03.901Z,25.85
2019-03-22T08:11:32.088Z,26.93
2019-03-22T08:14:07.564Z,27.90
2019-03-22T08:16:35.705Z,27.25
2019-03-22T08:19:03.946Z,24.60
2019-03-22T08:21:32.141Z,28.63
2019-03-22T08:24:00.258Z,25.93
2019-03-22T08:26:28.398Z,25.03
2019-03-22T08:28:56.584Z,25.53
2019-03-22T08:31:24.781Z,26.30
2019-03-22T08:33:53.006Z,24.63
2019-03-22T08:36:21.136Z,25.10
2019-03-22T08:38:49.277Z,27.73
2019-03-22T08:41:17.409Z,23.87
2019-03-22T08:43:45.529Z,26.07
2019-03-22T08:46:13.677Z,23.40
2019-03-22T08:48:41.885Z,21.83
2019-03-22T08:51:10.016Z,24.70
2019-03-22T08:53:39.903Z,25.03
2019-03-22T08:56:08.154Z,24.83
2019-03-22T08:58:36.366Z,24.23
2019-03-22T09:01:04.630Z,30.30
2019-03-22T09:03:33.026Z,24.40
2019-03-22T09:06:02.860Z,24.10
2019-03-22T09:08:31.055Z,23.07
2019-03-22T09:10:59.176Z,22.70
2019-03-22T09:13:27.396Z,21.42
2019-03-22T09:15:55.520Z,20.67
2019-03-22T09:18:23.763Z,20.10
2019-03-22T09:20:51.968Z,17.98
2019-03-22T09:23:20.128Z,15.27
2019-03-22T09:25:48.302Z,14.00
2019-03-22T09:28:16.594Z,14.10
2019-03-22T09:30:44.815Z,13.10
2019-03-22T09:33:13.453Z,12.83
2019-03-22T09:35:41.768Z,12.47
2019-03-22T09:38:13.054Z,11.70
2019-03-22T09:40:39.865Z,11.93
2019-03-22T09:43:08.029Z,11.85
2019-03-22T09:45:36.268Z,11.17
2019-03-22T09:48:06.265Z,11.13
2019-03-22T09:50:34.710Z,10.90
2019-03-22T09:53:03.002Z,10.60
2019-03-22T09:55:31.122Z,10.53
2019-03-22T09:57:59.272Z,10.73
2019-03-22T10:00:29.035Z,10.80
2019-03-22T10:02:58.848Z,10.43
2019-03-22T10:05:27.395Z,10.33
2019-03-22T10:07:55.532Z,11.20
2019-03-22T10:10:23.670Z,10.43
2019-03-22T10:12:51.883Z,10.30
2019-03-22T10:15:20.075Z,10.70
2019-03-22T10:17:48.305Z,11.38
2019-03-22T10:20:16.513Z,10.53
2019-03-22T10:22:44.710Z,10.07
2019-03-22T10:25:12.964Z,11.13
2019-03-22T10:27:41.206Z,10.83
2019-03-22T10:30:10.290Z,10.37
2019-03-22T10:32:38.476Z,11.07
2019-03-22T10:35:08.030Z,10.83
2019-03-22T10:37:36.321Z,9.03
2019-03-22T10:40:05.144Z,10.70
2019-03-22T10:42:33.368Z,9.13
2019-03-22T10:45:01.584Z,9.77
2019-03-22T10:47:29.774Z,9.00
2019-03-22T10:49:57.919Z,8.83
2019-03-22T10:52:26.152Z,9.53
2019-03-22T10:54:54.328Z,10.08
2019-03-22T10:57:22.545Z,9.63
2019-03-22T10:59:50.681Z,9.43
2019-03-22T11:02:18.808Z,9.00
2019-03-22T11:04:47.002Z,9.93
2019-03-22T11:07:15.133Z,8.68
2019-03-22T11:09:43.269Z,9.13
2019-03-22T11:12:12.411Z,11.05
2019-03-22T11:14:40.927Z,9.95
2019-03-22T11:17:09.051Z,8.40
2019-03-22T11:19:37.890Z,9.45
2019-03-22T11:22:06.137Z,9.50
2019-03-22T11:24:35.002Z,9.73
2019-03-22T11:27:03.562Z,9.63
2019-03-22T11:29:31.866Z,9.75
2019-03-22T11:32:00.864Z,11.00
2019-03-22T11:34:29.011Z,10.48
2019-03-22T11:36:57.123Z,11.35
2019-03-22T11:39:25.291Z,10.00
2019-03-22T11:41:53.415Z,11.17
2019-03-22T11:44:21.571Z,10.40
2019-03-22T11:46:49.783Z,10.65
2019-03-22T11:49:17.974Z,11.18
2019-03-22T11:51:46.197Z,12.17
2019-03-22T11:54:14.338Z,11.28
2019-03-22T11:56:42.460Z,11.13
2019-03-22T11:59:10.575Z,11.20
2019-03-22T12:01:38.779Z,12.40
2019-03-22T12:04:07.019Z,11.80
2019-03-22T12:06:35.262Z,10.63
2019-03-22T12:09:23.072Z,9.90
2019-03-22T12:11:51.283Z,10.72
2019-03-22T12:14:22.180Z,10.98
2019-03-22T12:16:50.443Z,10.98
2019-03-22T12:19:19.415Z,11.57
2019-03-22T12:21:47.609Z,11.47
2019-03-22T12:24:15.712Z,9.18
2019-03-22T12:26:43.841Z,8.73
2019-03-22T12:29:11.978Z,10.10
2019-03-22T12:31:40.836Z,10.97
2019-03-22T12:34:09.060Z,8.53
2019-03-22T12:36:37.268Z,8.50
2019-03-22T12:39:06.508Z,8.70
2019-03-22T12:41:34.649Z,8.50
2019-03-22T12:44:07.231Z,9.75
2019-03-22T12:46:35.512Z,8.38
2019-03-22T12:49:03.886Z,8.67
2019-03-22T12:51:32.161Z,7.80
2019-03-22T12:54:01.230Z,7.15
2019-03-22T12:56:29.625Z,8.00
2019-03-22T12:58:57.969Z,9.35
2019-03-22T13:01:26.292Z,8.87
2019-03-22T13:03:54.641Z,8.15
2019-03-22T13:06:22.870Z,8.35
2019-03-22T13:08:51.434Z,9.30
2019-03-22T13:11:19.742Z,9.38
2019-03-22T13:13:47.977Z,9.20
2019-03-22T13:16:16.201Z,9.10
2019-03-22T13:18:50.042Z,17.48
2019-03-22T13:21:14.942Z,10.20
2019-03-22T13:23:43.271Z,11.45
2019-03-22T13:26:11.714Z,10.70
2019-03-22T13:28:39.977Z,10.10
2019-03-22T13:31:11.715Z,10.23
2019-03-22T13:33:40.165Z,10.03
2019-03-22T13:36:08.608Z,10.68
2019-03-22T13:38:36.995Z,10.50
2019-03-22T13:41:05.466Z,11.80
2019-03-22T13:43:33.773Z,11.08
2019-03-22T13:46:02.137Z,11.43
2019-03-22T13:48:39.558Z,12.53
2019-03-22T13:51:07.908Z,10.30
2019-03-22T13:53:36.232Z,10.40
2019-03-22T13:56:04.582Z,8.65
2019-03-22T13:58:33.708Z,7.85
2019-03-22T14:01:01.976Z,10.07
2019-03-22T14:03:30.316Z,20.23
2019-03-22T14:05:58.445Z,10.05
2019-03-22T14:08:27.101Z,9.05
2019-03-22T14:10:58.293Z,6.83
2019-03-22T14:13:26.592Z,18.15
2019-03-22T14:15:54.899Z,9.65
2019-03-22T14:18:23.085Z,8.90
2019-03-22T14:20:51.443Z,9.73
2019-03-22T14:23:19.772Z,8.23
2019-03-22T14:25:48.120Z,6.97
2019-03-22T14:28:16.561Z,7.50
2019-03-22T14:30:44.943Z,7.92
2019-03-22T14:33:13.886Z,9.08
2019-03-22T14:35:42.191Z,6.80
2019-03-22T14:38:10.537Z,7.17
2019-03-22T14:40:38.875Z,6.70
2019-03-22T14:43:07.352Z,5.60
2019-03-22T14:45:38.601Z,4.70
2019-03-22T14:48:06.980Z,4.20
2019-03-22T14:50:35.305Z,5.73
2019-03-22T14:53:03.658Z,9.53
2019-03-22T14:55:31.874Z,7.25
2019-03-22T14:58:00.189Z,4.97
2019-03-22T15:00:28.404Z,4.90
2019-03-22T15:02:56.697Z,4.42
2019-03-22T15:05:24.853Z,5.03
2019-03-22T15:07:53.122Z,15.45
2019-03-22T15:10:21.345Z,5.17
2019-03-22T15:12:49.842Z,3.97
2019-03-22T15:15:36.023Z,3.20
2019-03-22T15:18:11.789Z,4.42
2019-03-22T15:21:09.797Z,3.60
2019-03-22T15:24:03.178Z,2.72
2019-03-22T15:26:29.211Z,2.77
2019-03-22T15:32:01.384Z,3.25
2019-03-22T15:34:31.187Z,2.60
2019-03-22T15:37:17.977Z,3.83
2019-03-22T15:40:00.787Z,2.33
2019-03-22T15:42:29.070Z,2.25
2019-03-22T15:44:57.192Z,2.45
2019-03-22T15:47:25.447Z,2.40
2019-03-22T15:49:53.635Z,3.45
2019-03-22T15:52:21.849Z,4.30
2019-03-22T15:54:49.959Z,5.60
2019-03-22T15:57:18.071Z,2.12
2019-03-22T15:59:46.195Z,3.67
2019-03-22T16:02:14.384Z,5.12
2019-03-22T16:04:42.594Z,4.00
2019-03-22T16:07:10.874Z,2.30
2019-03-22T16:09:39.063Z,2.58
2019-03-22T16:12:07.212Z,2.00
2019-03-22T16:14:35.370Z,2.92
2019-03-22T16:17:03.594Z,18.70
2019-03-22T16:19:31.746Z,9.28
2019-03-22T16:21:59.927Z,2.70
2019-03-22T16:24:28.071Z,10.53
2019-03-22T16:26:56.294Z,8.85
2019-03-22T16:29:24.451Z,5.95
2019-03-22T16:31:52.558Z,3.67
2019-03-22T16:34:20.663Z,3.27
2019-03-22T16:36:48.797Z,6.22
2019-03-22T16:39:17.722Z,2.72
2019-03-22T16:41:45.918Z,6.85
2019-03-22T16:44:14.138Z,7.72
2019-03-22T16:46:42.376Z,2.10
2019-03-22T16:49:10.567Z,3.12
2019-03-22T16:51:38.751Z,2.02
2019-03-22T16:54:06.983Z,4.08
2019-03-22T16:56:35.836Z,3.77
2019-03-22T16:59:04.053Z,6.75
2019-03-22T17:01:32.240Z,2.93
2019-03-22T17:04:04.498Z,3.20
2019-03-22T17:06:30.335Z,1.70
2019-03-22T17:09:00.353Z,1.75
2019-03-22T17:11:28.776Z,2.40
2019-03-22T17:13:56.931Z,7.57
2019-03-22T17:16:25.150Z,2.20
2019-03-22T17:18:53.362Z,2.17
2019-03-22T17:21:21.578Z,2.55
2019-03-22T17:23:49.761Z,3.50
2019-03-22T17:26:17.992Z,4.33
2019-03-22T17:28:46.133Z,5.70
2019-03-22T17:31:14.288Z,3.33
2019-03-22T17:33:42.507Z,15.77
2019-03-22T17:36:10.678Z,3.33
2019-03-22T17:38:38.883Z,13.07
2019-03-22T17:41:07.143Z,13.20
2019-03-22T17:43:35.313Z,11.53
2019-03-22T17:46:03.589Z,11.30
2019-03-22T17:48:31.797Z,7.22
2019-03-22T17:50:59.991Z,3.87
2019-03-22T17:53:28.131Z,11.30
2019-03-22T17:55:56.271Z,10.90
2019-03-22T17:58:24.477Z,10.30
2019-03-22T18:00:52.746Z,11.40
2019-03-22T18:03:20.936Z,12.70
2019-03-22T18:05:49.813Z,23.67
2019-03-22T18:08:17.949Z,13.90
2019-03-22T18:10:46.085Z,16.77
2019-03-22T18:13:14.284Z,18.00
2019-03-22T18:15:42.514Z,12.70
2019-03-22T18:18:10.637Z,11.93
2019-03-22T18:20:38.815Z,10.67
2019-03-22T18:23:06.969Z,16.32
2019-03-22T18:25:35.176Z,16.07
2019-03-22T18:28:03.291Z,18.57
2019-03-22T18:30:31.445Z,15.08
2019-03-22T18:32:59.610Z,19.77
2019-03-22T18:35:28.053Z,19.93
2019-03-22T18:37:56.283Z,17.13
2019-03-22T18:40:24.507Z,14.27
2019-03-22T18:42:52.627Z,14.70
2019-03-22T18:45:20.857Z,18.33
2019-03-22T18:47:49.059Z,10.35
2019-03-22T18:50:17.566Z,7.05
2019-03-22T18:52:45.715Z,3.70
2019-03-22T18:55:14.065Z,7.03
2019-03-22T18:57:42.341Z,13.20
2019-03-22T19:00:14.713Z,9.48
2019-03-22T19:02:43.020Z,7.17
2019-03-22T19:05:11.528Z,8.57
2019-03-22T19:07:39.772Z,5.67
2019-03-22T19:10:11.469Z,8.20
2019-03-22T19:12:39.704Z,7.97
2019-03-22T19:15:09.202Z,13.30
2019-03-22T19:17:38.142Z,9.53
2019-03-22T19:20:07.330Z,4.65
2019-03-22T19:22:35.484Z,5.83
2019-03-22T19:25:04.359Z,5.67
2019-03-22T19:27:32.603Z,6.20
2019-03-22T19:30:01.276Z,5.00
2019-03-22T19:32:29.513Z,6.47
2019-03-22T19:34:59.456Z,8.47
2019-03-22T19:37:27.658Z,6.00
2019-03-22T19:39:55.934Z,10.10
2019-03-22T19:42:24.060Z,13.60
2019-03-22T19:44:52.262Z,9.40
2019-03-22T19:47:20.445Z,3.93
2019-03-22T19:49:48.735Z,8.35
2019-03-22T19:52:16.914Z,8.93
2019-03-22T19:54:45.098Z,8.10
2019-03-22T19:57:13.363Z,8.23
2019-03-22T19:59:41.634Z,8.27
2019-03-22T20:02:13.890Z,7.43
2019-03-22T20:04:42.311Z,7.73
2019-03-22T20:07:10.536Z,6.23
2019-03-22T20:09:39.047Z,6.87
2019-03-22T20:12:07.367Z,6.80
2019-03-22T20:14:35.563Z,7.50
2019-03-22T20:17:03.847Z,5.27
2019-03-22T20:19:32.042Z,10.33
2019-03-22T20:22:00.243Z,12.07
2019-03-22T20:24:28.382Z,8.43
2019-03-22T20:26:56.506Z,7.23
2019-03-22T20:29:24.637Z,6.70
2019-03-22T20:31:52.941Z,6.87
2019-03-22T20:34:21.145Z,9.00
2019-03-22T20:36:49.286Z,9.25
2019-03-22T20:39:17.418Z,8.93
2019-03-22T20:41:45.536Z,10.40
2019-03-22T20:44:13.754Z,8.23
2019-03-22T20:46:41.879Z,7.40
2019-03-22T20:49:10.088Z,8.20
2019-03-22T20:51:38.316Z,6.60
2019-03-22T20:54:06.462Z,7.70
2019-03-22T20:56:34.602Z,8.90
2019-03-22T20:59:02.775Z,8.07
2019-03-22T21:01:30.921Z,7.93
2019-03-22T21:03:59.080Z,6.85
2019-03-22T21:06:27.315Z,7.10
2019-03-22T21:08:55.538Z,8.05
2019-03-22T21:11:23.653Z,7.33
2019-03-22T21:13:51.799Z,9.27
2019-03-22T21:16:19.913Z,7.10
2019-03-22T21:18:48.045Z,7.23
2019-03-22T21:21:16.171Z,12.40
2019-03-22T21:23:44.306Z,7.83
2019-03-22T21:26:12.555Z,9.53
2019-03-22T21:28:40.760Z,7.92
2019-03-22T21:31:08.931Z,7.70
2019-03-22T21:33:37.058Z,8.13
2019-03-22T21:36:05.239Z,8.90
2019-03-22T21:38:34.707Z,8.20
2019-03-22T21:41:02.848Z,8.50
2019-03-22T21:43:31.154Z,7.30
2019-03-22T21:45:59.344Z,7.77
2019-03-22T21:48:27.572Z,7.50
2019-03-22T21:50:55.754Z,10.40
2019-03-22T21:53:24.110Z,9.50
2019-03-22T21:55:54.213Z,9.40
2019-03-22T21:58:22.472Z,8.63
2019-03-22T22:00:50.749Z,8.37
2019-03-22T22:03:18.983Z,7.33
2019-03-22T22:05:48.039Z,8.37
2019-03-22T22:08:16.495Z,7.40
2019-03-22T22:10:44.782Z,8.30
2019-03-22T22:13:12.913Z,8.93
2019-03-22T22:15:41.069Z,8.87
2019-03-22T22:18:09.273Z,7.47
2019-03-22T22:20:38.765Z,8.00
2019-03-22T22:23:26.438Z,8.57
2019-03-22T22:25:55.118Z,10.70
2019-03-22T22:28:23.435Z,7.77
2019-03-22T22:30:54.035Z,7.67
2019-03-22T22:33:22.425Z,7.63
2019-03-22T22:35:58.645Z,7.37
2019-03-22T22:38:20.782Z,7.43
2019-03-22T22:40:48.918Z,8.33
2019-03-22T22:43:17.248Z,8.87
2019-03-22T22:45:45.544Z,8.83
2019-03-22T22:48:16.776Z,9.57
2019-03-22T22:50:46.957Z,10.63
2019-03-22T22:53:15.139Z,10.30
2019-03-22T22:55:43.347Z,12.07
2019-03-22T22:58:13.196Z,12.53
2019-03-22T23:00:41.834Z,13.20
2019-03-22T23:03:10.036Z,14.80
2019-03-22T23:05:38.172Z,15.03
2019-03-22T23:08:06.354Z,16.90
2019-03-22T23:10:34.578Z,19.30
2019-03-22T23:13:03.552Z,19.47
2019-03-22T23:15:31.731Z,21.03
2019-03-22T23:17:59.938Z,20.43
2019-03-22T23:20:28.087Z,20.40
2019-03-22T23:22:56.239Z,21.63
2019-03-22T23:25:24.838Z,21.30
2019-03-22T23:27:53.027Z,24.00
2019-03-22T23:30:21.185Z,24.97
2019-03-22T23:32:49.368Z,25.33
2019-03-22T23:35:17.530Z,25.67
2019-03-22T23:37:45.653Z,25.93
2019-03-22T23:40:13.902Z,27.37
2019-03-22T23:42:42.027Z,27.70
2019-03-22T23:45:10.418Z,26.63
2019-03-22T23:47:38.548Z,28.15
2019-03-22T23:50:07.045Z,29.20
2019-03-22T23:52:35.225Z,28.63
2019-03-22T23:55:04.323Z,30.73
2019-03-22T23:57:32.524Z,31.03
